createdAt,value
2023-04-16T00:00:00.187Z,21.41
2023-04-16T00:01:00.127Z,21.41
2023-04-16T00:02:00.263Z,21.40
2023-04-16T00:03:00.318Z,21.40
2023-04-16T00:04:00.545Z,21.41
2023-04-16T00:05:00.298Z,21.40
2023-04-16T00:06:00.321Z,21.41
2023-04-16T00:07:00.224Z,21.41
2023-04-16T00:08:00.269Z,21.40
2023-04-16T00:09:00.274Z,21.42
2023-04-16T00:10:00.347Z,21.41
2023-04-16T00:11:00.340Z,21.41
2023-04-16T00:12:00.346Z,21.41
2023-04-16T00:13:00.348Z,21.41
2023-04-16T00:14:00.346Z,21.40
2023-04-16T00:15:00.341Z,21.40
2023-04-16T00:16:00.335Z,21.39
2023-04-16T00:17:00.404Z,21.39
2023-04-16T00:18:00.361Z,21.39
2023-04-16T00:19:00.353Z,21.38
2023-04-16T00:20:00.358Z,21.38
2023-04-16T00:21:00.366Z,21.37
2023-04-16T00:22:00.373Z,21.37
2023-04-16T00:23:00.379Z,21.38
2023-04-16T00:24:00.455Z,21.37
2023-04-16T00:25:00.383Z,21.36
2023-04-16T00:26:00.423Z,21.36
2023-04-16T00:27:00.410Z,21.35
2023-04-16T00:28:00.420Z,21.35
2023-04-16T00:29:00.486Z,21.35
2023-04-16T00:30:00.433Z,21.36
2023-04-16T00:31:00.402Z,21.35
2023-04-16T00:32:00.368Z,21.35
2023-04-16T00:33:00.454Z,21.35
2023-04-16T00:34:00.348Z,21.36
2023-04-16T00:35:00.398Z,21.35
2023-04-16T00:36:00.372Z,21.35
2023-04-16T00:37:00.404Z,21.35
2023-04-16T00:38:00.425Z,21.35
2023-04-16T00:39:00.378Z,21.35
2023-04-16T00:40:00.389Z,21.35
2023-04-16T00:41:00.347Z,21.34
2023-04-16T00:42:00.339Z,21.34
2023-04-16T00:43:00.353Z,21.35
2023-04-16T00:44:00.519Z,21.34
2023-04-16T00:45:00.317Z,21.34
2023-04-16T00:46:00.350Z,21.34
2023-04-16T00:47:00.338Z,21.34
2023-04-16T00:48:00.755Z,21.34
2023-04-16T00:49:00.307Z,21.33
2023-04-16T00:50:00.275Z,21.33
2023-04-16T00:51:00.289Z,21.32
2023-04-16T00:52:00.307Z,21.32
2023-04-16T00:53:00.384Z,21.32
2023-04-16T00:54:00.267Z,21.31
2023-04-16T00:55:00.308Z,21.31
2023-04-16T00:56:00.293Z,21.31
2023-04-16T00:57:00.289Z,21.31
2023-04-16T00:58:00.259Z,21.30
2023-04-16T00:59:00.300Z,21.29
2023-04-16T01:00:00.260Z,21.29
2023-04-16T01:01:00.256Z,21.28
2023-04-16T01:02:00.398Z,21.27
2023-04-16T01:03:00.437Z,21.27
2023-04-16T01:04:00.390Z,21.27
2023-04-16T01:05:00.296Z,21.25
2023-04-16T01:06:00.296Z,21.25
2023-04-16T01:07:00.270Z,21.25
2023-04-16T01:08:00.386Z,21.25
2023-04-16T01:09:00.275Z,21.24
2023-04-16T01:10:00.303Z,21.24
2023-04-16T01:11:00.324Z,21.23
2023-04-16T01:12:00.294Z,21.23
2023-04-16T01:13:00.301Z,21.22
2023-04-16T01:14:00.310Z,21.22
2023-04-16T01:15:00.359Z,21.22
2023-04-16T01:16:00.361Z,21.21
2023-04-16T01:17:00.333Z,21.21
2023-04-16T01:18:00.408Z,21.21
2023-04-16T01:19:00.301Z,21.20
2023-04-16T01:20:00.359Z,21.21
2023-04-16T01:21:00.366Z,21.20
2023-04-16T01:22:00.367Z,21.20
2023-04-16T01:23:00.886Z,21.21
2023-04-16T01:24:00.382Z,21.21
2023-04-16T01:25:00.389Z,21.21
2023-04-16T01:26:00.356Z,21.21
2023-04-16T01:27:00.431Z,21.21
2023-04-16T01:28:00.418Z,21.20
2023-04-16T01:29:00.383Z,21.21
2023-04-16T01:30:00.373Z,21.21
2023-04-16T01:31:00.454Z,21.21
2023-04-16T01:32:00.442Z,21.20
2023-04-16T01:33:00.505Z,21.20
2023-04-16T01:34:00.480Z,21.21
2023-04-16T01:35:00.523Z,21.21
2023-04-16T01:36:00.419Z,21.20
2023-04-16T01:37:00.422Z,21.20
2023-04-16T01:38:00.407Z,21.20
2023-04-16T01:39:00.406Z,21.20
2023-04-16T01:40:00.461Z,21.19
2023-04-16T01:41:00.421Z,21.20
2023-04-16T01:42:00.438Z,21.19
2023-04-16T01:43:00.427Z,21.19
2023-04-16T01:44:00.444Z,21.19
2023-04-16T01:45:00.447Z,21.19
2023-04-16T01:46:00.455Z,21.19
2023-04-16T01:47:00.571Z,21.18
2023-04-16T01:48:00.555Z,21.18
2023-04-16T01:49:00.517Z,21.17
2023-04-16T01:50:00.502Z,21.16
2023-04-16T01:51:00.489Z,21.16
2023-04-16T01:52:00.543Z,21.16
2023-04-16T01:53:00.511Z,21.15
2023-04-16T01:54:00.562Z,21.15
2023-04-16T01:55:00.596Z,21.15
2023-04-16T01:56:00.638Z,21.14
2023-04-16T01:57:00.606Z,21.14
2023-04-16T01:58:00.553Z,21.13
2023-04-16T01:59:00.633Z,21.13
2023-04-16T02:00:00.654Z,21.13
2023-04-16T02:01:00.741Z,21.12
2023-04-16T02:02:00.767Z,21.12
2023-04-16T02:03:00.835Z,21.11
2023-04-16T02:04:00.829Z,21.11
2023-04-16T02:05:00.733Z,21.11
2023-04-16T02:06:00.706Z,21.11
2023-04-16T02:07:00.708Z,21.12
2023-04-16T02:08:00.704Z,21.11
2023-04-16T02:09:00.732Z,21.11
2023-04-16T02:10:00.752Z,21.10
2023-04-16T02:11:00.798Z,21.11
2023-04-16T02:12:00.735Z,21.10
2023-04-16T02:13:00.822Z,21.10
2023-04-16T02:14:00.780Z,21.10
2023-04-16T02:15:00.862Z,21.09
2023-04-16T02:16:00.809Z,21.09
2023-04-16T02:17:00.788Z,21.10
2023-04-16T02:18:00.906Z,21.09
2023-04-16T02:19:00.849Z,21.09
2023-04-16T02:20:00.848Z,21.09
2023-04-16T02:21:00.908Z,21.08
2023-04-16T02:22:00.890Z,21.08
2023-04-16T02:23:00.899Z,21.09
2023-04-16T02:24:00.909Z,21.09
2023-04-16T02:25:00.940Z,21.08
2023-04-16T02:26:01.041Z,21.09
2023-04-16T02:27:00.952Z,21.08
2023-04-16T02:28:01.027Z,21.08
2023-04-16T02:29:01.022Z,21.08
2023-04-16T02:30:01.056Z,21.08
2023-04-16T02:31:01.060Z,21.08
2023-04-16T02:32:01.158Z,21.08
2023-04-16T02:33:01.167Z,21.07
2023-04-16T02:34:01.103Z,21.08
2023-04-16T02:35:01.164Z,21.07
2023-04-16T02:36:01.132Z,21.07
2023-04-16T02:37:01.175Z,21.07
2023-04-16T02:38:01.195Z,21.06
2023-04-16T02:39:01.246Z,21.07
2023-04-16T02:40:01.261Z,21.06
2023-04-16T02:41:01.230Z,21.05
2023-04-16T02:42:01.303Z,21.06
2023-04-16T02:43:01.279Z,21.05
2023-04-16T02:44:01.314Z,21.05
2023-04-16T02:45:01.336Z,21.04
2023-04-16T02:46:01.442Z,21.04
2023-04-16T02:47:01.487Z,21.03
2023-04-16T02:48:01.444Z,21.02
2023-04-16T02:49:01.469Z,21.03
2023-04-16T02:50:01.471Z,21.02
2023-04-16T02:51:01.509Z,21.02
2023-04-16T02:52:01.478Z,21.02
2023-04-16T02:53:01.597Z,21.02
2023-04-16T02:54:01.579Z,21.02
2023-04-16T02:55:01.552Z,21.02
2023-04-16T02:56:01.566Z,21.03
2023-04-16T02:57:01.611Z,21.03
2023-04-16T02:58:01.630Z,21.02
2023-04-16T02:59:01.670Z,21.02
2023-04-16T03:00:01.665Z,21.03
2023-04-16T03:01:01.834Z,21.02
2023-04-16T03:02:01.722Z,21.03
2023-04-16T03:03:01.886Z,21.04
2023-04-16T03:04:01.784Z,21.03
2023-04-16T03:05:01.731Z,21.03
2023-04-16T03:06:01.777Z,21.03
2023-04-16T03:07:01.933Z,21.03
2023-04-16T03:08:01.818Z,21.03
2023-04-16T03:09:01.834Z,21.03
2023-04-16T03:10:01.890Z,21.02
2023-04-16T03:11:01.859Z,21.03
2023-04-16T03:12:01.878Z,21.03
2023-04-16T03:13:02.008Z,21.03
2023-04-16T03:14:01.942Z,21.02
2023-04-16T03:15:01.944Z,21.03
2023-04-16T03:16:02.085Z,21.03
2023-04-16T03:17:01.984Z,21.02
2023-04-16T03:18:02.133Z,21.02
2023-04-16T03:19:02.071Z,21.02
2023-04-16T03:20:02.058Z,21.03
2023-04-16T03:21:02.076Z,21.03
2023-04-16T03:22:02.096Z,21.02
2023-04-16T03:23:02.106Z,21.02
2023-04-16T03:24:02.149Z,21.02
2023-04-16T03:25:02.152Z,21.02
2023-04-16T03:26:02.243Z,21.02
2023-04-16T03:27:02.183Z,21.03
2023-04-16T03:28:02.201Z,21.02
2023-04-16T03:29:02.246Z,21.03
2023-04-16T03:30:02.312Z,21.03
2023-04-16T03:31:02.349Z,21.03
2023-04-16T03:32:02.300Z,21.03
2023-04-16T03:33:02.367Z,21.03
2023-04-16T03:34:02.387Z,21.03
2023-04-16T03:35:02.382Z,21.03
2023-04-16T03:36:02.433Z,21.03
2023-04-16T03:37:02.458Z,21.04
2023-04-16T03:38:02.401Z,21.04
2023-04-16T03:39:02.450Z,21.05
2023-04-16T03:40:02.465Z,21.04
2023-04-16T03:41:02.459Z,21.05
2023-04-16T03:42:02.558Z,21.05
2023-04-16T03:43:02.509Z,21.05
2023-04-16T03:44:02.509Z,21.04
2023-04-16T03:45:02.568Z,21.05
2023-04-16T03:46:02.572Z,21.05
2023-04-16T03:47:02.624Z,21.05
2023-04-16T03:48:02.604Z,21.04
2023-04-16T03:49:02.619Z,21.04
2023-04-16T03:50:02.635Z,21.04
2023-04-16T03:51:02.658Z,21.03
2023-04-16T03:52:02.716Z,21.04
2023-04-16T03:53:02.726Z,21.05
2023-04-16T03:54:02.713Z,21.05
2023-04-16T03:55:02.782Z,21.04
2023-04-16T03:56:02.783Z,21.06
2023-04-16T03:57:02.790Z,21.06
2023-04-16T03:58:02.772Z,21.05
2023-04-16T03:59:02.799Z,21.06
2023-04-16T04:00:02.888Z,21.06
2023-04-16T04:01:02.884Z,21.06
2023-04-16T04:02:02.965Z,21.06
2023-04-16T04:03:03.077Z,21.06
2023-04-16T04:04:03.018Z,21.06
2023-04-16T04:05:02.981Z,21.05
2023-04-16T04:06:02.952Z,21.06
2023-04-16T04:07:02.940Z,21.04
2023-04-16T04:08:02.986Z,21.05
2023-04-16T04:09:03.050Z,21.05
2023-04-16T04:10:03.080Z,21.05
2023-04-16T04:11:03.045Z,21.05
2023-04-16T04:12:03.046Z,21.05
2023-04-16T04:13:03.099Z,21.05
2023-04-16T04:14:03.103Z,21.04
2023-04-16T04:15:03.204Z,21.05
2023-04-16T04:16:03.152Z,21.05
2023-04-16T04:17:03.123Z,21.05
2023-04-16T04:18:03.174Z,21.05
2023-04-16T04:19:03.155Z,21.05
2023-04-16T04:20:03.226Z,21.05
2023-04-16T04:21:03.224Z,21.05
2023-04-16T04:22:03.235Z,21.05
2023-04-16T04:23:03.230Z,21.06
2023-04-16T04:24:03.289Z,21.07
2023-04-16T04:25:03.279Z,21.06
2023-04-16T04:26:03.312Z,21.07
2023-04-16T04:27:03.358Z,21.06
2023-04-16T04:28:03.295Z,21.05
2023-04-16T04:29:03.309Z,21.04
2023-04-16T04:30:03.415Z,21.04
2023-04-16T04:31:03.356Z,21.05
2023-04-16T04:32:03.433Z,21.04
2023-04-16T04:33:03.453Z,21.04
2023-04-16T04:34:03.415Z,21.04
2023-04-16T04:35:03.444Z,21.05
2023-04-16T04:36:03.475Z,21.05
2023-04-16T04:37:03.532Z,21.06
2023-04-16T04:38:03.539Z,21.06
2023-04-16T04:39:03.535Z,21.07
2023-04-16T04:40:03.583Z,21.08
2023-04-16T04:41:03.623Z,21.08
2023-04-16T04:42:03.571Z,21.09
2023-04-16T04:43:03.558Z,21.10
2023-04-16T04:44:03.562Z,21.10
2023-04-16T04:45:03.582Z,21.10
2023-04-16T04:46:03.665Z,21.12
2023-04-16T04:47:03.591Z,21.11
2023-04-16T04:48:03.589Z,21.12
2023-04-16T04:49:03.620Z,21.12
2023-04-16T04:50:03.597Z,21.12
2023-04-16T04:51:04.987Z,21.13
2023-04-16T04:52:03.715Z,21.12
2023-04-16T04:53:03.626Z,21.13
2023-04-16T04:54:03.605Z,21.12
2023-04-16T04:55:03.658Z,21.13
2023-04-16T04:56:12.286Z,21.11
2023-04-16T04:57:04.632Z,21.11
2023-04-16T04:58:03.606Z,21.11
2023-04-16T04:59:03.644Z,21.11
2023-04-16T05:00:03.597Z,21.11
2023-04-16T05:01:03.672Z,21.11
2023-04-16T05:02:03.670Z,21.11
2023-04-16T05:03:03.684Z,21.12
2023-04-16T05:04:03.650Z,21.12
2023-04-16T05:05:03.634Z,21.12
2023-04-16T05:06:03.547Z,21.12
2023-04-16T05:07:03.571Z,21.12
2023-04-16T05:08:03.542Z,21.13
2023-04-16T05:09:03.546Z,21.14
2023-04-16T05:10:03.515Z,21.13
2023-04-16T05:11:03.586Z,21.14
2023-04-16T05:12:03.518Z,21.15
2023-04-16T05:13:03.513Z,21.15
2023-04-16T05:14:03.511Z,21.16
2023-04-16T05:15:03.556Z,21.16
2023-04-16T05:16:03.491Z,21.16
2023-04-16T05:17:03.609Z,21.17
2023-04-16T05:18:03.545Z,21.18
2023-04-16T05:19:03.529Z,21.18
2023-04-16T05:20:03.455Z,21.19
2023-04-16T05:21:03.426Z,21.19
2023-04-16T05:22:03.473Z,21.20
2023-04-16T05:23:03.424Z,21.19
2023-04-16T05:24:03.431Z,21.20
2023-04-16T05:25:03.453Z,21.20
2023-04-16T05:26:03.380Z,21.20
2023-04-16T05:27:03.396Z,21.20
2023-04-16T05:28:03.373Z,21.21
2023-04-16T05:29:03.406Z,21.21
2023-04-16T05:30:03.438Z,21.21
2023-04-16T05:31:03.433Z,21.21
2023-04-16T05:32:03.371Z,21.21
2023-04-16T05:33:03.365Z,21.22
2023-04-16T05:34:03.381Z,21.22
2023-04-16T05:35:03.346Z,21.22
2023-04-16T05:36:03.361Z,21.22
2023-04-16T05:37:03.368Z,21.22
2023-04-16T05:38:03.335Z,21.22
2023-04-16T05:39:03.378Z,21.22
2023-04-16T05:40:03.354Z,21.21
2023-04-16T05:41:03.333Z,21.23
2023-04-16T05:42:03.436Z,21.23
2023-04-16T05:43:03.347Z,21.23
2023-04-16T05:44:03.328Z,21.23
2023-04-16T05:45:03.375Z,21.24
2023-04-16T05:46:03.421Z,21.24
2023-04-16T05:47:03.368Z,21.25
2023-04-16T05:48:03.338Z,21.26
2023-04-16T05:49:03.452Z,21.26
2023-04-16T05:50:03.335Z,21.27
2023-04-16T05:51:03.363Z,21.27
2023-04-16T05:52:03.357Z,21.27
2023-04-16T05:53:03.336Z,21.27
2023-04-16T05:54:03.308Z,21.27
2023-04-16T05:55:03.448Z,21.28
2023-04-16T05:56:03.340Z,21.28
2023-04-16T05:57:03.352Z,21.29
2023-04-16T05:58:03.316Z,21.30
2023-04-16T05:59:03.289Z,21.31
2023-04-16T06:00:03.282Z,21.32
2023-04-16T06:01:03.320Z,21.32
2023-04-16T06:02:03.333Z,21.34
2023-04-16T06:03:03.455Z,21.33
2023-04-16T06:04:03.393Z,21.34
2023-04-16T06:05:03.324Z,21.35
2023-04-16T06:06:03.366Z,21.36
2023-04-16T06:07:03.307Z,21.36
2023-04-16T06:08:03.273Z,21.36
2023-04-16T06:09:03.238Z,21.36
2023-04-16T06:10:03.282Z,21.38
2023-04-16T06:11:03.263Z,21.37
2023-04-16T06:12:03.312Z,21.39
2023-04-16T06:13:03.346Z,21.39
2023-04-16T06:14:03.303Z,21.40
2023-04-16T06:15:03.319Z,21.41
2023-04-16T06:16:03.407Z,21.42
2023-04-16T06:17:03.369Z,21.43
2023-04-16T06:18:03.514Z,21.43
2023-04-16T06:19:03.490Z,21.43
2023-04-16T06:20:03.559Z,21.43
2023-04-16T06:21:03.586Z,21.44
2023-04-16T06:22:03.646Z,21.45
2023-04-16T06:23:03.717Z,21.46
2023-04-16T06:24:03.746Z,21.47
2023-04-16T06:25:03.805Z,21.47
2023-04-16T06:26:03.886Z,21.48
2023-04-16T06:27:03.964Z,21.49
2023-04-16T06:28:03.987Z,21.49
2023-04-16T06:29:04.082Z,21.51
2023-04-16T06:30:04.127Z,21.52
2023-04-16T06:31:04.280Z,21.52
2023-04-16T06:32:04.254Z,21.53
2023-04-16T06:33:04.347Z,21.53
2023-04-16T06:34:04.370Z,21.55
2023-04-16T06:35:04.455Z,21.55
2023-04-16T06:36:04.484Z,21.55
2023-04-16T06:37:04.565Z,21.56
2023-04-16T06:38:04.682Z,21.57
2023-04-16T06:39:04.739Z,21.58
2023-04-16T06:40:04.921Z,21.58
2023-04-16T06:41:04.787Z,21.58
2023-04-16T06:42:04.880Z,21.59
2023-04-16T06:43:04.924Z,21.59
2023-04-16T06:44:04.996Z,21.61
2023-04-16T06:45:05.028Z,21.62
2023-04-16T06:46:05.103Z,21.63
2023-04-16T06:47:05.345Z,21.64
2023-04-16T06:48:05.255Z,21.64
2023-04-16T06:49:05.219Z,21.66
2023-04-16T06:50:05.257Z,21.66
2023-04-16T06:51:05.395Z,21.68
2023-04-16T06:52:06.049Z,21.69
2023-04-16T06:53:05.463Z,21.70
2023-04-16T06:54:05.459Z,21.71
2023-04-16T06:55:05.506Z,21.72
2023-04-16T06:56:05.561Z,21.73
2023-04-16T06:57:05.601Z,21.74
2023-04-16T06:58:05.631Z,21.75
2023-04-16T06:59:05.702Z,21.76
2023-04-16T07:00:05.720Z,21.76
2023-04-16T07:01:05.789Z,21.77
2023-04-16T07:02:05.902Z,21.79
2023-04-16T07:03:05.926Z,21.80
2023-04-16T07:04:05.953Z,21.81
2023-04-16T07:05:05.943Z,21.84
2023-04-16T07:06:05.987Z,21.84
2023-04-16T07:07:05.998Z,21.87
2023-04-16T07:08:06.021Z,21.87
2023-04-16T07:09:06.082Z,21.89
2023-04-16T07:10:06.081Z,21.90
2023-04-16T07:11:06.097Z,21.90
2023-04-16T07:12:06.133Z,21.92
2023-04-16T07:13:06.169Z,21.93
2023-04-16T07:14:06.219Z,21.93
2023-04-16T07:15:06.176Z,21.94
2023-04-16T07:16:06.255Z,21.94
2023-04-16T07:17:06.239Z,21.95
2023-04-16T07:18:06.350Z,21.96
2023-04-16T07:19:06.283Z,21.96
2023-04-16T07:20:06.359Z,21.98
2023-04-16T07:21:06.365Z,21.99
2023-04-16T07:22:06.368Z,21.99
2023-04-16T07:23:06.370Z,22.00
2023-04-16T07:24:06.402Z,22.02
2023-04-16T07:25:06.447Z,22.02
2023-04-16T07:26:06.409Z,22.03
2023-04-16T07:27:06.419Z,22.04
2023-04-16T07:28:06.449Z,22.05
2023-04-16T07:29:06.467Z,22.05
2023-04-16T07:30:06.467Z,22.06
2023-04-16T07:31:06.484Z,22.07
2023-04-16T07:32:06.532Z,22.07
2023-04-16T07:33:06.504Z,22.08
2023-04-16T07:34:06.483Z,22.09
2023-04-16T07:35:06.561Z,22.09
2023-04-16T07:36:06.567Z,22.10
2023-04-16T07:37:06.534Z,22.11
2023-04-16T07:38:06.626Z,22.12
2023-04-16T07:39:06.550Z,22.12
2023-04-16T07:40:06.615Z,22.13
2023-04-16T07:41:06.613Z,22.14
2023-04-16T07:42:06.612Z,22.14
2023-04-16T07:43:06.623Z,22.14
2023-04-16T07:44:06.620Z,22.14
2023-04-16T07:45:06.624Z,22.14
2023-04-16T07:46:06.700Z,22.16
2023-04-16T07:47:06.760Z,22.16
2023-04-16T07:48:06.670Z,22.16
2023-04-16T07:49:06.654Z,22.17
2023-04-16T07:50:06.661Z,22.17
2023-04-16T07:51:06.664Z,22.19
2023-04-16T07:52:06.673Z,22.19
2023-04-16T07:53:06.680Z,22.19
2023-04-16T07:54:06.649Z,22.20
2023-04-16T07:55:06.702Z,22.21
2023-04-16T07:56:06.702Z,22.22
2023-04-16T07:57:06.740Z,22.22
2023-04-16T07:58:06.656Z,22.23
2023-04-16T07:59:21.214Z,22.23
2023-04-16T08:00:07.653Z,22.23
2023-04-16T08:01:06.656Z,22.23
2023-04-16T08:02:06.802Z,22.25
2023-04-16T08:03:06.959Z,22.27
2023-04-16T08:04:06.703Z,22.28
2023-04-16T08:05:06.860Z,22.29
2023-04-16T08:06:06.595Z,22.29
2023-04-16T08:07:06.696Z,22.31
2023-04-16T08:08:06.613Z,22.32
2023-04-16T08:09:06.605Z,22.33
2023-04-16T08:10:06.550Z,22.35
2023-04-16T08:11:06.604Z,22.35
2023-04-16T08:12:06.575Z,22.36
2023-04-16T08:13:06.548Z,22.37
2023-04-16T08:14:06.550Z,22.37
2023-04-16T08:15:06.558Z,22.39
2023-04-16T08:16:06.565Z,22.39
2023-04-16T08:17:06.533Z,22.40
2023-04-16T08:18:06.568Z,22.41
2023-04-16T08:19:06.515Z,22.42
2023-04-16T08:20:06.562Z,22.43
2023-04-16T08:21:06.505Z,22.44
2023-04-16T08:22:06.509Z,22.44
2023-04-16T08:23:06.583Z,22.45
2023-04-16T08:24:06.606Z,22.47
2023-04-16T08:25:06.648Z,22.48
2023-04-16T08:26:06.745Z,22.49
2023-04-16T08:27:17.759Z,22.50
2023-04-16T08:28:07.792Z,22.50
2023-04-16T08:29:06.760Z,22.52
2023-04-16T08:30:06.777Z,22.53
2023-04-16T08:31:06.837Z,22.54
2023-04-16T08:32:06.737Z,22.55
2023-04-16T08:33:06.737Z,22.56
2023-04-16T08:34:06.755Z,22.56
2023-04-16T08:35:06.694Z,22.58
2023-04-16T08:36:06.764Z,22.58
2023-04-16T08:37:06.916Z,22.60
2023-04-16T08:38:06.883Z,22.61
2023-04-16T08:39:06.937Z,22.62
2023-04-16T08:40:07.006Z,22.64
2023-04-16T08:41:07.065Z,22.64
2023-04-16T08:42:07.051Z,22.66
2023-04-16T08:43:07.258Z,22.68
2023-04-16T08:44:07.187Z,22.69
2023-04-16T08:45:07.238Z,22.70
2023-04-16T08:46:07.338Z,22.71
2023-04-16T08:47:07.303Z,22.72
2023-04-16T08:48:07.359Z,22.73
2023-04-16T08:49:07.508Z,22.73
2023-04-16T08:50:07.406Z,22.74
2023-04-16T08:51:07.491Z,22.75
2023-04-16T08:52:07.522Z,22.75
2023-04-16T08:53:07.541Z,22.77
2023-04-16T08:54:07.608Z,22.77
2023-04-16T08:55:07.666Z,22.78
2023-04-16T08:56:07.646Z,22.78
2023-04-16T08:57:07.712Z,22.80
2023-04-16T08:58:07.732Z,22.81
2023-04-16T08:59:07.934Z,22.81
2023-04-16T09:00:07.847Z,22.81
2023-04-16T09:01:07.907Z,22.82
2023-04-16T09:02:07.914Z,22.83
2023-04-16T09:03:08.089Z,22.83
2023-04-16T09:04:08.111Z,22.85
2023-04-16T09:05:08.031Z,22.85
2023-04-16T09:06:08.043Z,22.86
2023-04-16T09:07:08.031Z,22.88
2023-04-16T09:08:08.113Z,22.89
2023-04-16T09:09:08.467Z,22.91
2023-04-16T09:10:08.182Z,22.92
2023-04-16T09:11:08.174Z,22.92
2023-04-16T09:12:08.237Z,22.95
2023-04-16T09:13:08.231Z,22.96
2023-04-16T09:14:08.253Z,22.97
2023-04-16T09:15:08.288Z,22.98
2023-04-16T09:16:08.346Z,22.99
2023-04-16T09:17:08.315Z,23.01
2023-04-16T09:18:08.315Z,23.02
2023-04-16T09:19:08.542Z,23.03
2023-04-16T09:20:08.381Z,23.04
2023-04-16T09:21:08.415Z,23.05
2023-04-16T09:22:08.408Z,23.06
2023-04-16T09:23:08.402Z,23.06
2023-04-16T09:24:08.464Z,23.08
2023-04-16T09:25:08.464Z,23.08
2023-04-16T09:26:08.470Z,23.08
2023-04-16T09:27:08.540Z,23.09
2023-04-16T09:28:08.667Z,23.10
2023-04-16T09:29:08.759Z,23.10
2023-04-16T09:30:08.536Z,23.10
2023-04-16T09:31:08.613Z,23.11
2023-04-16T09:32:08.741Z,23.11
2023-04-16T09:33:08.620Z,23.12
2023-04-16T09:34:08.605Z,23.12
2023-04-16T09:35:08.640Z,23.12
2023-04-16T09:36:08.633Z,23.13
2023-04-16T09:37:08.649Z,23.14
2023-04-16T09:38:08.787Z,23.15
2023-04-16T09:39:08.820Z,23.16
2023-04-16T09:40:08.782Z,23.16
2023-04-16T09:41:08.764Z,23.17
2023-04-16T09:42:08.756Z,23.17
2023-04-16T09:43:08.766Z,23.18
2023-04-16T09:44:08.720Z,23.18
2023-04-16T09:45:08.728Z,23.18
2023-04-16T09:46:08.828Z,23.18
2023-04-16T09:47:08.783Z,23.19
2023-04-16T09:48:08.821Z,23.20
2023-04-16T09:49:09.169Z,23.21
2023-04-16T09:50:09.611Z,23.22
2023-04-16T09:51:08.816Z,23.23
2023-04-16T09:52:08.862Z,23.23
2023-04-16T09:53:08.832Z,23.25
2023-04-16T09:54:08.848Z,23.26
2023-04-16T09:55:08.947Z,23.27
2023-04-16T09:56:08.895Z,23.28
2023-04-16T09:57:08.872Z,23.29
2023-04-16T09:58:08.923Z,23.32
2023-04-16T09:59:09.152Z,23.33
2023-04-16T10:00:08.951Z,23.33
2023-04-16T10:01:08.931Z,23.34
2023-04-16T10:02:15.298Z,23.35
2023-04-16T10:03:09.988Z,23.36
2023-04-16T10:04:09.037Z,23.37
2023-04-16T10:05:08.948Z,23.39
2023-04-16T10:06:08.932Z,23.41
2023-04-16T10:07:08.938Z,23.42
2023-04-16T10:08:08.890Z,23.43
2023-04-16T10:09:09.121Z,23.44
2023-04-16T10:10:08.873Z,23.45
2023-04-16T10:11:08.840Z,23.45
2023-04-16T10:12:08.867Z,23.46
2023-04-16T10:13:08.854Z,23.47
2023-04-16T10:14:08.869Z,23.48
2023-04-16T10:15:08.865Z,23.49
2023-04-16T10:16:08.819Z,23.51
2023-04-16T10:17:08.933Z,23.52
2023-04-16T10:18:08.842Z,23.54
2023-04-16T10:19:09.199Z,23.54
2023-04-16T10:20:08.789Z,23.54
2023-04-16T10:21:08.821Z,23.54
2023-04-16T10:22:08.815Z,23.56
2023-04-16T10:23:08.758Z,23.57
2023-04-16T10:24:08.780Z,23.58
2023-04-16T10:25:08.939Z,23.59
2023-04-16T10:26:08.906Z,23.61
2023-04-16T10:27:08.955Z,23.62
2023-04-16T10:28:09.059Z,23.63
2023-04-16T10:29:09.286Z,23.63
2023-04-16T10:30:09.112Z,23.64
2023-04-16T10:31:09.229Z,23.64
2023-04-16T10:32:09.229Z,23.65
2023-04-16T10:33:09.358Z,23.66
2023-04-16T10:34:09.348Z,23.66
2023-04-16T10:35:09.417Z,23.67
2023-04-16T10:36:09.460Z,23.67
2023-04-16T10:37:09.549Z,23.67
2023-04-16T10:38:09.575Z,23.68
2023-04-16T10:39:09.777Z,23.68
2023-04-16T10:40:09.812Z,23.68
2023-04-16T10:41:09.715Z,23.68
2023-04-16T10:42:09.837Z,23.68
2023-04-16T10:43:09.879Z,23.68
2023-04-16T10:44:10.055Z,23.68
2023-04-16T10:45:10.006Z,23.69
2023-04-16T10:46:10.123Z,23.69
2023-04-16T10:47:10.116Z,23.71
2023-04-16T10:48:10.246Z,23.71
2023-04-16T10:49:10.431Z,23.71
2023-04-16T10:50:10.340Z,23.71
2023-04-16T10:51:10.366Z,23.71
2023-04-16T10:52:10.457Z,23.72
2023-04-16T10:53:10.505Z,23.73
2023-04-16T10:54:10.572Z,23.73
2023-04-16T10:55:10.603Z,23.73
2023-04-16T10:56:10.685Z,23.74
2023-04-16T10:57:10.785Z,23.74
2023-04-16T10:58:10.808Z,23.74
2023-04-16T10:59:11.114Z,23.75
2023-04-16T11:00:10.913Z,23.76
2023-04-16T11:01:11.072Z,23.75
2023-04-16T11:02:11.119Z,23.75
2023-04-16T11:03:11.222Z,23.74
2023-04-16T11:04:11.321Z,23.75
2023-04-16T11:05:11.250Z,23.75
2023-04-16T11:06:11.292Z,23.75
2023-04-16T11:07:11.368Z,23.76
2023-04-16T11:08:11.429Z,23.76
2023-04-16T11:09:11.574Z,23.76
2023-04-16T11:10:11.526Z,23.76
2023-04-16T11:11:11.601Z,23.77
2023-04-16T11:12:11.641Z,23.78
2023-04-16T11:13:11.813Z,23.77
2023-04-16T11:14:11.775Z,23.78
2023-04-16T11:15:11.893Z,23.77
2023-04-16T11:16:11.922Z,23.76
2023-04-16T11:17:11.977Z,23.76
2023-04-16T11:18:12.056Z,23.74
2023-04-16T11:19:12.210Z,23.73
2023-04-16T11:20:19.413Z,23.72
2023-04-16T11:21:13.144Z,23.71
2023-04-16T11:22:12.116Z,23.70
2023-04-16T11:23:12.128Z,23.71
2023-04-16T11:24:12.097Z,23.70
2023-04-16T11:25:12.103Z,23.70
2023-04-16T11:26:12.109Z,23.70
2023-04-16T11:27:12.124Z,23.69
2023-04-16T11:28:12.136Z,23.69
2023-04-16T11:29:12.122Z,23.68
2023-04-16T11:30:12.155Z,23.68
2023-04-16T11:31:12.217Z,23.67
2023-04-16T11:32:12.256Z,23.67
2023-04-16T11:33:12.308Z,23.67
2023-04-16T11:34:12.370Z,23.67
2023-04-16T11:35:12.438Z,23.67
2023-04-16T11:36:12.498Z,23.67
2023-04-16T11:37:12.532Z,23.67
2023-04-16T11:38:12.605Z,23.66
2023-04-16T11:39:12.903Z,23.66
2023-04-16T11:40:12.717Z,23.67
2023-04-16T11:41:12.734Z,23.66
2023-04-16T11:42:12.892Z,23.67
2023-04-16T11:43:12.893Z,23.67
2023-04-16T11:44:12.952Z,23.68
2023-04-16T11:45:12.993Z,23.70
2023-04-16T11:46:24.565Z,23.69
2023-04-16T11:47:14.107Z,23.69
2023-04-16T11:48:13.069Z,23.70
2023-04-16T11:49:13.252Z,23.70
2023-04-16T11:50:13.062Z,23.70
2023-04-16T11:51:13.042Z,23.71
2023-04-16T11:52:12.993Z,23.70
2023-04-16T11:53:12.973Z,23.71
2023-04-16T11:54:12.966Z,23.72
2023-04-16T11:55:13.033Z,23.72
2023-04-16T11:56:13.087Z,23.74
2023-04-16T11:57:13.119Z,23.74
2023-04-16T11:58:13.197Z,23.75
2023-04-16T11:59:13.525Z,23.75
2023-04-16T12:00:13.354Z,23.75
2023-04-16T12:01:13.423Z,23.75
2023-04-16T12:02:13.497Z,23.75
2023-04-16T12:03:13.745Z,23.74
2023-04-16T12:04:13.660Z,23.75
2023-04-16T12:05:13.666Z,23.76
2023-04-16T12:06:13.674Z,23.75
2023-04-16T12:07:13.729Z,23.76
2023-04-16T12:08:13.762Z,23.75
2023-04-16T12:09:13.851Z,23.74
2023-04-16T12:10:13.930Z,23.74
2023-04-16T12:11:14.009Z,23.74
2023-04-16T12:12:14.031Z,23.73
2023-04-16T12:13:14.132Z,23.73
2023-04-16T12:14:14.117Z,23.73
2023-04-16T12:15:14.221Z,23.72
2023-04-16T12:16:14.311Z,23.71
2023-04-16T12:17:14.324Z,23.71
2023-04-16T12:18:14.413Z,23.69
2023-04-16T12:19:14.464Z,23.69
2023-04-16T12:20:14.521Z,23.69
2023-04-16T12:21:14.655Z,23.68
2023-04-16T12:22:14.644Z,23.67
2023-04-16T12:23:14.699Z,23.66
2023-04-16T12:24:14.782Z,23.65
2023-04-16T12:25:14.800Z,23.65
2023-04-16T12:26:14.872Z,23.65
2023-04-16T12:27:14.884Z,23.63
2023-04-16T12:28:14.990Z,23.64
2023-04-16T12:29:15.035Z,23.62
2023-04-16T12:30:15.113Z,23.62
2023-04-16T12:31:15.144Z,23.61
2023-04-16T12:32:15.273Z,23.61
2023-04-16T12:33:15.186Z,23.62
2023-04-16T12:34:15.271Z,23.61
2023-04-16T12:35:15.278Z,23.60
2023-04-16T12:36:15.279Z,23.61
2023-04-16T12:37:15.290Z,23.61
2023-04-16T12:38:15.368Z,23.60
2023-04-16T12:39:15.380Z,23.60
2023-04-16T12:40:15.374Z,23.60
2023-04-16T12:41:15.390Z,23.60
2023-04-16T12:42:15.436Z,23.60
2023-04-16T12:43:15.445Z,23.59
2023-04-16T12:44:15.512Z,23.60
2023-04-16T12:45:15.523Z,23.58
2023-04-16T12:46:15.606Z,23.58
2023-04-16T12:47:15.577Z,23.59
2023-04-16T12:48:15.623Z,23.58
2023-04-16T12:49:15.603Z,23.58
2023-04-16T12:50:15.597Z,23.58
2023-04-16T12:51:15.610Z,23.57
2023-04-16T12:52:15.625Z,23.57